sensor_id;sensor_type;location;lat;lon;timestamp;pressure;altitude;pressure_sealevel;temperature;humidity
25664;BME280;13522;50.018;20.014;2022-10-31T00:01:10;99202.44;;;13.17;100.00
25664;BME280;13522;50.018;20.014;2022-10-31T00:04:23;99202.56;;;13.16;100.00
25664;BME280;13522;50.018;20.014;2022-10-31T00:07:35;99196.53;;;13.14;100.00
25664;BME280;13522;50.018;20.014;2022-10-31T00:10:47;99192.23;;;13.03;100.00
25664;BME280;13522;50.018;20.014;2022-10-31T00:13:59;99203.47;;;13.07;100.00
25664;BME280;13522;50.018;20.014;2022-10-31T00:17:11;99200.11;;;13.04;100.00
25664;BME280;13522;50.018;20.014;2022-10-31T00:20:23;99201.20;;;13.02;100.00
25664;BME280;13522;50.018;20.014;2022-10-31T00:23:36;99197.00;;;12.99;100.00
25664;BME280;13522;50.018;20.014;2022-10-31T00:26:48;99206.00;;;12.98;100.00
25664;BME280;13522;50.018;20.014;2022-10-31T00:30:00;99208.13;;;12.95;100.00
25664;BME280;13522;50.018;20.014;2022-10-31T00:33:11;99203.23;;;12.90;100.00
25664;BME280;13522;50.018;20.014;2022-10-31T00:36:23;99203.23;;;12.90;100.00
25664;BME280;13522;50.018;20.014;2022-10-31T00:39:35;99207.48;;;12.83;100.00
25664;BME280;13522;50.018;20.014;2022-10-31T00:42:46;99209.19;;;12.75;100.00
25664;BME280;13522;50.018;20.014;2022-10-31T00:45:58;99205.56;;;12.66;100.00
25664;BME280;13522;50.018;20.014;2022-10-31T00:49:12;99212.17;;;12.62;100.00
25664;BME280;13522;50.018;20.014;2022-10-31T00:52:24;99222.44;;;12.57;100.00
25664;BME280;13522;50.018;20.014;2022-10-31T00:55:36;99212.36;;;12.51;100.00
25664;BME280;13522;50.018;20.014;2022-10-31T00:58:48;99220.50;;;12.50;100.00
25664;BME280;13522;50.018;20.014;2022-10-31T01:02:00;99219.09;;;12.36;100.00
25664;BME280;13522;50.018;20.014;2022-10-31T01:05:12;99226.13;;;12.37;100.00
25664;BME280;13522;50.018;20.014;2022-10-31T01:08:24;99224.43;;;12.36;100.00
25664;BME280;13522;50.018;20.014;2022-10-31T01:11:36;99215.31;;;12.39;100.00
25664;BME280;13522;50.018;20.014;2022-10-31T01:14:48;99212.38;;;12.32;100.00
25664;BME280;13522;50.018;20.014;2022-10-31T01:18:00;99221.06;;;12.34;100.00
25664;BME280;13522;50.018;20.014;2022-10-31T01:21:14;99204.27;;;12.34;100.00
25664;BME280;13522;50.018;20.014;2022-10-31T01:24:28;99207.33;;;12.39;100.00
25664;BME280;13522;50.018;20.014;2022-10-31T01:27:40;99208.02;;;12.41;100.00
25664;BME280;13522;50.018;20.014;2022-10-31T01:30:52;99208.17;;;12.39;100.00
25664;BME280;13522;50.018;20.014;2022-10-31T01:34:04;99201.16;;;12.38;100.00
25664;BME280;13522;50.018;20.014;2022-10-31T01:37:16;99195.70;;;12.40;100.00
25664;BME280;13522;50.018;20.014;2022-10-31T01:40:31;99188.53;;;12.40;100.00
25664;BME280;13522;50.018;20.014;2022-10-31T01:43:51;99198.22;;;12.41;100.00
25664;BME280;13522;50.018;20.014;2022-10-31T01:47:07;99191.34;;;12.39;100.00
25664;BME280;13522;50.018;20.014;2022-10-31T01:50:30;99193.31;;;12.37;100.00
25664;BME280;13522;50.018;20.014;2022-10-31T01:53:44;99186.44;;;12.34;100.00
25664;BME280;13522;50.018;20.014;2022-10-31T01:56:57;99191.77;;;12.34;100.00
25664;BME280;13522;50.018;20.014;2022-10-31T02:00:13;99185.47;;;12.35;100.00
25664;BME280;13522;50.018;20.014;2022-10-31T02:03:26;99181.54;;;12.39;100.00
25664;BME280;13522;50.018;20.014;2022-10-31T02:06:43;99186.56;;;12.42;100.00
25664;BME280;13522;50.018;20.014;2022-10-31T02:09:58;99191.89;;;12.42;100.00
25664;BME280;13522;50.018;20.014;2022-10-31T02:13:11;99193.04;;;12.40;100.00
25664;BME280;13522;50.018;20.014;2022-10-31T02:16:26;99197.52;;;12.39;100.00
25664;BME280;13522;50.018;20.014;2022-10-31T02:19:42;99202.84;;;12.39;100.00
25664;BME280;13522;50.018;20.014;2022-10-31T02:30:50;99200.91;;;12.32;100.00
25664;BME280;13522;50.018;20.014;2022-10-31T02:34:11;99202.30;;;12.26;100.00
25664;BME280;13522;50.018;20.014;2022-10-31T02:37:29;99208.47;;;12.27;100.00
25664;BME280;13522;50.018;20.014;2022-10-31T02:40:51;99213.95;;;12.25;100.00
25664;BME280;13522;50.018;20.014;2022-10-31T02:44:19;99206.26;;;12.22;100.00
25664;BME280;13522;50.018;20.014;2022-10-31T02:47:35;99211.70;;;12.20;100.00
25664;BME280;13522;50.018;20.014;2022-10-31T02:50:51;99209.04;;;12.20;100.00
25664;BME280;13522;50.018;20.014;2022-10-31T02:54:14;99216.21;;;12.20;100.00
25664;BME280;13522;50.018;20.014;2022-10-31T02:57:31;99214.37;;;12.20;100.00
25664;BME280;13522;50.018;20.014;2022-10-31T03:00:49;99214.52;;;12.19;100.00
25664;BME280;13522;50.018;20.014;2022-10-31T03:04:23;99217.73;;;12.23;100.00
25664;BME280;13522;50.018;20.014;2022-10-31T03:08:00;99219.42;;;12.24;100.00
25664;BME280;13522;50.018;20.014;2022-10-31T03:11:14;99223.20;;;12.21;100.00
25664;BME280;13522;50.018;20.014;2022-10-31T03:14:34;99218.88;;;12.20;100.00
25664;BME280;13522;50.018;20.014;2022-10-31T03:17:54;99222.66;;;12.17;100.00
25664;BME280;13522;50.018;20.014;2022-10-31T03:21:11;99227.13;;;12.17;100.00
25664;BME280;13522;50.018;20.014;2022-10-31T03:24:30;99213.13;;;12.15;100.00
25664;BME280;13522;50.018;20.014;2022-10-31T03:27:45;99214.94;;;12.14;100.00
25664;BME280;13522;50.018;20.014;2022-10-31T03:30:58;99221.11;;;12.15;100.00
25664;BME280;13522;50.018;20.014;2022-10-31T03:34:14;99227.98;;;12.17;100.00
25664;BME280;13522;50.018;20.014;2022-10-31T03:37:29;99228.13;;;12.16;100.00
25664;BME280;13522;50.018;20.014;2022-10-31T03:40:44;99218.30;;;12.16;100.00
25664;BME280;13522;50.018;20.014;2022-10-31T03:44:00;99228.13;;;12.16;100.00
25664;BME280;13522;50.018;20.014;2022-10-31T03:47:16;99228.13;;;12.16;100.00
25664;BME280;13522;50.018;20.014;2022-10-31T03:50:32;99234.27;;;12.16;100.00
25664;BME280;13522;50.018;20.014;2022-10-31T03:53:50;99234.27;;;12.16;100.00
25664;BME280;13522;50.018;20.014;2022-10-31T03:57:08;99233.16;;;12.19;100.00
25664;BME280;13522;50.018;20.014;2022-10-31T04:00:24;99236.81;;;12.18;100.00
25664;BME280;13522;50.018;20.014;2022-10-31T04:03:37;99237.78;;;12.17;100.00
25664;BME280;13522;50.018;20.014;2022-10-31T04:06:51;99237.08;;;12.15;100.00
25664;BME280;13522;50.018;20.014;2022-10-31T04:10:07;99237.08;;;12.15;100.00
25664;BME280;13522;50.018;20.014;2022-10-31T04:13:24;99232.05;;;12.12;100.00
25664;BME280;13522;50.018;20.014;2022-10-31T04:16:44;99230.66;;;12.08;100.00
25664;BME280;13522;50.018;20.014;2022-10-31T04:20:00;99235.28;;;12.06;100.00
25664;BME280;13522;50.018;20.014;2022-10-31T04:23:17;99232.03;;;12.02;100.00
25664;BME280;13522;50.018;20.014;2022-10-31T04:26:31;99239.62;;;11.97;100.00
25664;BME280;13522;50.018;20.014;2022-10-31T04:29:43;99239.06;;;11.94;100.00
25664;BME280;13522;50.018;20.014;2022-10-31T04:32:56;99235.85;;;11.90;100.00
25664;BME280;13522;50.018;20.014;2022-10-31T04:36:09;99241.44;;;11.87;100.00
25664;BME280;13522;50.018;20.014;2022-10-31T04:39:21;99237.23;;;11.85;100.00
25664;BME280;13522;50.018;20.014;2022-10-31T04:42:49;99235.41;;;11.85;100.00
25664;BME280;13522;50.018;20.014;2022-10-31T04:46:01;99243.55;;;11.84;100.00
25664;BME280;13522;50.018;20.014;2022-10-31T04:49:14;99236.52;;;11.83;100.00
25664;BME280;13522;50.018;20.014;2022-10-31T04:52:26;99238.48;;;11.81;100.00
25664;BME280;13522;50.018;20.014;2022-10-31T04:55:38;99251.79;;;11.81;100.00
25664;BME280;13522;50.018;20.014;2022-10-31T04:58:58;99250.27;;;11.78;100.00
25664;BME280;13522;50.018;20.014;2022-10-31T05:02:12;99240.59;;;11.77;100.00
25664;BME280;13522;50.018;20.014;2022-10-31T05:05:27;99251.64;;;11.73;100.00
25664;BME280;13522;50.018;20.014;2022-10-31T05:08:41;99254.45;;;11.71;100.00
25664;BME280;13522;50.018;20.014;2022-10-31T05:11:53;99247.46;;;11.70;100.00
25664;BME280;13522;50.018;20.014;2022-10-31T05:15:25;99247.72;;;11.67;100.00
25664;BME280;13522;50.018;20.014;2022-10-31T05:18:43;99251.23;;;11.68;100.00
25664;BME280;13522;50.018;20.014;2022-10-31T05:22:13;99256.55;;;11.68;100.00
25664;BME280;13522;50.018;20.014;2022-10-31T05:25:26;99255.70;;;11.67;100.00
25664;BME280;13522;50.018;20.014;2022-10-31T05:28:40;99265.50;;;11.67;100.00
25664;BME280;13522;50.018;20.014;2022-10-31T05:31:52;99267.34;;;11.66;100.00
25664;BME280;13522;50.018;20.014;2022-10-31T05:35:20;99269.01;;;11.67;100.00
25664;BME280;13522;50.018;20.014;2022-10-31T05:38:51;99275.32;;;11.66;100.00
25664;BME280;13522;50.018;20.014;2022-10-31T05:42:05;99272.04;;;11.63;100.00
25664;BME280;13522;50.018;20.014;2022-10-31T05:45:19;99277.36;;;11.63;100.00
25664;BME280;13522;50.018;20.014;2022-10-31T05:48:34;99276.66;;;11.61;100.00
25664;BME280;13522;50.018;20.014;2022-10-31T05:52:05;99290.95;;;11.60;100.00
25664;BME280;13522;50.018;20.014;2022-10-31T05:55:21;99282.83;;;11.61;100.00
25664;BME280;13522;50.018;20.014;2022-10-31T05:58:38;99289.28;;;11.59;100.00
25664;BME280;13522;50.018;20.014;2022-10-31T06:01:50;99290.25;;;11.58;100.00
25664;BME280;13522;50.018;20.014;2022-10-31T06:05:16;99290.95;;;11.60;100.00
25664;BME280;13522;50.018;20.014;2022-10-31T06:08:28;99293.61;;;11.60;100.00
25664;BME280;13522;50.018;20.014;2022-10-31T06:11:42;99300.48;;;11.62;100.00
25664;BME280;13522;50.018;20.014;2022-10-31T06:15:02;99300.34;;;11.64;100.00
25664;BME280;13522;50.018;20.014;2022-10-31T06:18:15;99304.45;;;11.68;100.00
25664;BME280;13522;50.018;20.014;2022-10-31T06:21:29;99306.81;;;11.71;100.00
25664;BME280;13522;50.018;20.014;2022-10-31T06:24:41;99307.12;;;11.77;100.00
25664;BME280;13522;50.018;20.014;2022-10-31T06:27:55;99312.74;;;11.84;100.00
25664;BME280;13522;50.018;20.014;2022-10-31T06:31:09;99315.81;;;11.89;100.00
25664;BME280;13522;50.018;20.014;2022-10-31T06:34:21;99317.78;;;11.96;100.00
25664;BME280;13522;50.018;20.014;2022-10-31T06:37:33;99326.51;;;12.08;100.00
25664;BME280;13522;50.018;20.014;2022-10-31T06:40:50;99318.67;;;12.16;100.00
25664;BME280;13522;50.018;20.014;2022-10-31T06:44:03;99321.03;;;12.29;100.00
25664;BME280;13522;50.018;20.014;2022-10-31T06:47:35;99325.94;;;12.43;100.00
25664;BME280;13522;50.018;20.014;2022-10-31T06:50:51;99317.92;;;12.52;100.00
25664;BME280;13522;50.018;20.014;2022-10-31T06:54:05;99322.38;;;12.80;100.00
25664;BME280;13522;50.018;20.014;2022-10-31T06:57:17;99326.95;;;12.97;100.00
25664;BME280;13522;50.018;20.014;2022-10-31T07:00:30;99325.83;;;13.10;100.00
25664;BME280;13522;50.018;20.014;2022-10-31T07:03:44;99343.45;;;13.30;100.00
25664;BME280;13522;50.018;20.014;2022-10-31T07:06:56;99328.25;;;13.40;100.00
25664;BME280;13522;50.018;20.014;2022-10-31T07:10:09;99330.12;;;13.57;100.00
25664;BME280;13522;50.018;20.014;2022-10-31T07:13:23;99335.38;;;13.76;100.00
25664;BME280;13522;50.018;20.014;2022-10-31T07:16:37;99330.50;;;13.89;100.00
25664;BME280;13522;50.018;20.014;2022-10-31T07:19:51;99335.41;;;14.11;100.00
25664;BME280;13522;50.018;20.014;2022-10-31T07:23:03;99337.48;;;14.17;100.00
25664;BME280;13522;50.018;20.014;2022-10-31T07:26:15;99334.36;;;14.22;100.00
25664;BME280;13522;50.018;20.014;2022-10-31T07:29:27;99335.16;;;14.32;100.00
25664;BME280;13522;50.018;20.014;2022-10-31T07:32:43;99333.45;;;14.48;100.00
25664;BME280;13522;50.018;20.014;2022-10-31T07:35:54;99338.16;;;14.72;99.21
25664;BME280;13522;50.018;20.014;2022-10-31T07:39:08;99339.69;;;14.74;98.64
25664;BME280;13522;50.018;20.014;2022-10-31T07:42:20;99326.25;;;14.66;98.48
25664;BME280;13522;50.018;20.014;2022-10-31T07:45:31;99330.36;;;14.78;98.45
25664;BME280;13522;50.018;20.014;2022-10-31T07:49:02;99337.81;;;15.18;96.65
25664;BME280;13522;50.018;20.014;2022-10-31T07:52:35;99331.83;;;15.50;95.04
25664;BME280;13522;50.018;20.014;2022-10-31T07:56:07;99332.37;;;15.61;93.72
25664;BME280;13522;50.018;20.014;2022-10-31T07:59:21;99324.42;;;15.86;92.81
25664;BME280;13522;50.018;20.014;2022-10-31T08:02:33;99329.98;;;15.92;91.60
25664;BME280;13522;50.018;20.014;2022-10-31T08:05:53;99329.34;;;16.22;89.28
25664;BME280;13522;50.018;20.014;2022-10-31T08:09:08;99323.56;;;16.67;88.05
25664;BME280;13522;50.018;20.014;2022-10-31T08:12:21;99333.38;;;17.23;86.23
25664;BME280;13522;50.018;20.014;2022-10-31T08:15:35;99326.44;;;17.53;83.10
25664;BME280;13522;50.018;20.014;2022-10-31T08:18:48;99330.63;;;18.16;80.23
25664;BME280;13522;50.018;20.014;2022-10-31T08:22:01;99330.09;;;18.52;78.75
25664;BME280;13522;50.018;20.014;2022-10-31T08:25:13;99323.22;;;19.38;75.94
25664;BME280;13522;50.018;20.014;2022-10-31T08:28:25;99323.39;;;19.80;74.65
25664;BME280;13522;50.018;20.014;2022-10-31T08:31:37;99324.08;;;20.39;72.52
25664;BME280;13522;50.018;20.014;2022-10-31T08:35:08;99323.23;;;20.81;70.74
25664;BME280;13522;50.018;20.014;2022-10-31T08:38:39;99322.05;;;19.91;72.63
25664;BME280;13522;50.018;20.014;2022-10-31T08:41:51;99324.30;;;19.87;72.88
25664;BME280;13522;50.018;20.014;2022-10-31T08:45:04;99318.24;;;20.36;70.92
25664;BME280;13522;50.018;20.014;2022-10-31T08:48:17;99320.21;;;21.18;69.07
25664;BME280;13522;50.018;20.014;2022-10-31T08:51:30;99310.25;;;21.53;67.82
25664;BME280;13522;50.018;20.014;2022-10-31T09:35:21;99309.18;;;21.13;65.63
25664;BME280;13522;50.018;20.014;2022-10-31T09:48:03;99305.20;;;20.88;66.64
25664;BME280;13522;50.018;20.014;2022-10-31T09:54:39;99310.08;;;20.99;67.82
25664;BME280;13522;50.018;20.014;2022-10-31T09:57:54;99313.64;;;20.79;67.63
25664;BME280;13522;50.018;20.014;2022-10-31T10:12:13;99314.86;;;20.76;66.52
25664;BME280;13522;50.018;20.014;2022-10-31T10:18:53;99304.68;;;20.99;65.90
25664;BME280;13522;50.018;20.014;2022-10-31T10:22:15;99311.95;;;21.26;65.70
25664;BME280;13522;50.018;20.014;2022-10-31T10:28:51;99308.23;;;21.68;65.40
25664;BME280;13522;50.018;20.014;2022-10-31T11:22:17;99274.22;;;24.76;53.92
25664;BME280;13522;50.018;20.014;2022-10-31T11:25:29;99273.13;;;24.53;54.80
25664;BME280;13522;50.018;20.014;2022-10-31T11:28:41;99270.28;;;24.72;54.65
25664;BME280;13522;50.018;20.014;2022-10-31T11:31:54;99275.02;;;24.83;53.32
25664;BME280;13522;50.018;20.014;2022-10-31T11:35:10;99271.84;;;24.86;53.51
25664;BME280;13522;50.018;20.014;2022-10-31T11:38:27;99272.57;;;24.75;53.21
25664;BME280;13522;50.018;20.014;2022-10-31T11:41:42;99259.78;;;24.51;53.69
25664;BME280;13522;50.018;20.014;2022-10-31T11:44:55;99263.38;;;24.45;54.23
25664;BME280;13522;50.018;20.014;2022-10-31T11:48:17;99264.37;;;24.51;54.25
25664;BME280;13522;50.018;20.014;2022-10-31T11:51:33;99267.23;;;24.31;54.54
25664;BME280;13522;50.018;20.014;2022-10-31T11:54:48;99255.95;;;24.34;55.94
25664;BME280;13522;50.018;20.014;2022-10-31T12:51:48;99233.33;;;22.55;62.04
25664;BME280;13522;50.018;20.014;2022-10-31T13:10:26;99222.29;;;22.24;63.23
25664;BME280;13522;50.018;20.014;2022-10-31T13:13:53;99222.69;;;22.21;64.12
25664;BME280;13522;50.018;20.014;2022-10-31T13:28:02;99219.75;;;21.96;65.22
25664;BME280;13522;50.018;20.014;2022-10-31T13:31:36;99224.08;;;21.91;65.07
25664;BME280;13522;50.018;20.014;2022-10-31T13:35:18;99177.59;;;21.54;65.13
25664;BME280;13522;50.018;20.014;2022-10-31T13:38:37;99217.59;;;21.79;65.35
25664;BME280;13522;50.018;20.014;2022-10-31T13:41:53;99219.05;;;21.75;65.50
25664;BME280;13522;50.018;20.014;2022-10-31T13:45:16;99205.67;;;21.60;66.70
25664;BME280;13522;50.018;20.014;2022-10-31T13:48:39;99214.83;;;21.66;66.55
25664;BME280;13522;50.018;20.014;2022-10-31T13:52:07;99219.41;;;21.58;66.34
25664;BME280;13522;50.018;20.014;2022-10-31T13:55:41;99214.38;;;21.49;67.80
25664;BME280;13522;50.018;20.014;2022-10-31T13:59:17;99221.61;;;21.42;69.38
25664;BME280;13522;50.018;20.014;2022-10-31T14:02:33;99208.90;;;21.36;68.88
25664;BME280;13522;50.018;20.014;2022-10-31T14:05:52;99216.33;;;21.27;70.20
25664;BME280;13522;50.018;20.014;2022-10-31T14:09:05;99210.49;;;21.17;70.89
25664;BME280;13522;50.018;20.014;2022-10-31T14:12:33;99209.81;;;21.09;71.14
25664;BME280;13522;50.018;20.014;2022-10-31T14:15:56;99215.80;;;21.04;69.42
25664;BME280;13522;50.018;20.014;2022-10-31T14:19:16;99170.95;;;20.76;69.57
25664;BME280;13522;50.018;20.014;2022-10-31T14:22:33;99206.17;;;20.95;70.19
25664;BME280;13522;50.018;20.014;2022-10-31T14:25:48;99181.70;;;20.69;70.96
25664;BME280;13522;50.018;20.014;2022-10-31T14:29:01;99206.48;;;20.79;71.01
25664;BME280;13522;50.018;20.014;2022-10-31T14:32:28;99200.83;;;20.74;71.08
25664;BME280;13522;50.018;20.014;2022-10-31T14:35:50;99190.16;;;20.59;71.48
25664;BME280;13522;50.018;20.014;2022-10-31T14:39:07;99205.30;;;20.60;72.17
25664;BME280;13522;50.018;20.014;2022-10-31T14:42:34;99205.02;;;20.49;72.52
25664;BME280;13522;50.018;20.014;2022-10-31T14:46:00;99209.91;;;20.39;73.25
25664;BME280;13522;50.018;20.014;2022-10-31T14:49:31;99209.81;;;20.26;74.61
25664;BME280;13522;50.018;20.014;2022-10-31T14:52:57;99205.93;;;20.14;74.89
25664;BME280;13522;50.018;20.014;2022-10-31T14:56:13;99208.11;;;20.04;76.04
25664;BME280;13522;50.018;20.014;2022-10-31T14:59:32;99204.90;;;19.94;75.62
25664;BME280;13522;50.018;20.014;2022-10-31T15:02:46;99176.70;;;19.75;75.39
25664;BME280;13522;50.018;20.014;2022-10-31T15:06:05;99200.03;;;19.82;75.27
25664;BME280;13522;50.018;20.014;2022-10-31T15:09:28;99212.50;;;19.69;76.84
25664;BME280;13522;50.018;20.014;2022-10-31T15:12:41;99172.73;;;19.35;78.38
25664;BME280;13522;50.018;20.014;2022-10-31T15:15:55;99206.63;;;19.44;78.50
25664;BME280;13522;50.018;20.014;2022-10-31T15:19:12;99201.35;;;19.36;78.61
25664;BME280;13522;50.018;20.014;2022-10-31T15:22:29;99201.42;;;19.28;79.29
25664;BME280;13522;50.018;20.014;2022-10-31T15:25:43;99204.41;;;19.19;80.14
25664;BME280;13522;50.018;20.014;2022-10-31T15:29:02;99209.08;;;18.95;81.00
25664;BME280;13522;50.018;20.014;2022-10-31T15:32:21;99207.46;;;18.72;82.92
25664;BME280;13522;50.018;20.014;2022-10-31T15:35:34;99207.42;;;18.43;83.91
25664;BME280;13522;50.018;20.014;2022-10-31T15:38:46;99208.19;;;18.29;84.60
25664;BME280;13522;50.018;20.014;2022-10-31T15:41:59;99213.89;;;18.11;86.13
25664;BME280;13522;50.018;20.014;2022-10-31T15:45:21;99213.53;;;17.91;87.28
25664;BME280;13522;50.018;20.014;2022-10-31T15:48:34;99219.02;;;17.75;88.72
25664;BME280;13522;50.018;20.014;2022-10-31T15:51:47;99228.67;;;17.62;89.74
25664;BME280;13522;50.018;20.014;2022-10-31T15:55:03;99223.30;;;17.62;88.60
25664;BME280;13522;50.018;20.014;2022-10-31T15:58:17;99223.91;;;17.72;87.48
25664;BME280;13522;50.018;20.014;2022-10-31T16:01:32;99221.32;;;17.56;88.92
25664;BME280;13522;50.018;20.014;2022-10-31T16:04:53;99224.75;;;17.33;90.54
25664;BME280;13522;50.018;20.014;2022-10-31T16:08:24;99229.02;;;17.20;91.28
25664;BME280;13522;50.018;20.014;2022-10-31T16:11:40;99225.39;;;17.05;91.55
25664;BME280;13522;50.018;20.014;2022-10-31T16:14:54;99226.41;;;16.96;91.63
25664;BME280;13522;50.018;20.014;2022-10-31T16:18:10;99233.50;;;16.81;92.95
25664;BME280;13522;50.018;20.014;2022-10-31T16:21:28;99230.48;;;16.76;91.54
25664;BME280;13522;50.018;20.014;2022-10-31T16:24:45;99240.52;;;16.90;90.15
25664;BME280;13522;50.018;20.014;2022-10-31T16:28:02;99234.45;;;16.96;89.79
25664;BME280;13522;50.018;20.014;2022-10-31T16:31:25;99237.14;;;16.96;89.50
25664;BME280;13522;50.018;20.014;2022-10-31T16:34:42;99246.88;;;16.97;88.95
25664;BME280;13522;50.018;20.014;2022-10-31T16:37:57;99243.35;;;16.96;89.20
25664;BME280;13522;50.018;20.014;2022-10-31T16:41:14;99249.24;;;16.84;90.51
25664;BME280;13522;50.018;20.014;2022-10-31T16:44:30;99244.62;;;16.62;92.13
25664;BME280;13522;50.018;20.014;2022-10-31T16:47:45;99242.59;;;16.31;94.34
25664;BME280;13522;50.018;20.014;2022-10-31T16:50:59;99244.59;;;16.21;95.68
25664;BME280;13522;50.018;20.014;2022-10-31T16:54:15;99246.77;;;16.10;95.54
25664;BME280;13522;50.018;20.014;2022-10-31T16:57:31;99247.92;;;15.99;96.04
25664;BME280;13522;50.018;20.014;2022-10-31T17:00:43;99255.92;;;15.75;97.96
25664;BME280;13522;50.018;20.014;2022-10-31T17:03:56;99250.40;;;15.69;97.90
25664;BME280;13522;50.018;20.014;2022-10-31T17:07:09;99251.84;;;15.55;98.11
25664;BME280;13522;50.018;20.014;2022-10-31T17:10:21;99255.00;;;15.42;98.90
25664;BME280;13522;50.018;20.014;2022-10-31T17:13:35;99257.92;;;15.31;100.00
25664;BME280;13522;50.018;20.014;2022-10-31T17:16:48;99261.70;;;15.13;100.00
25664;BME280;13522;50.018;20.014;2022-10-31T17:20:04;99259.23;;;14.94;100.00
25664;BME280;13522;50.018;20.014;2022-10-31T17:23:24;99259.28;;;15.02;100.00
25664;BME280;13522;50.018;20.014;2022-10-31T17:26:38;99250.75;;;14.98;100.00
25664;BME280;13522;50.018;20.014;2022-10-31T17:29:52;99256.90;;;14.91;100.00
25664;BME280;13522;50.018;20.014;2022-10-31T17:33:04;99256.80;;;14.74;100.00
25664;BME280;13522;50.018;20.014;2022-10-31T17:36:16;99254.97;;;14.75;100.00
25664;BME280;13522;50.018;20.014;2022-10-31T17:39:29;99259.12;;;14.69;100.00
25664;BME280;13522;50.018;20.014;2022-10-31T17:42:41;99256.00;;;14.56;100.00
25664;BME280;13522;50.018;20.014;2022-10-31T17:45:59;99241.11;;;14.54;100.00
25664;BME280;13522;50.018;20.014;2022-10-31T17:49:13;99257.70;;;14.57;100.00
25664;BME280;13522;50.018;20.014;2022-10-31T17:52:26;99256.00;;;14.56;100.00
25664;BME280;13522;50.018;20.014;2022-10-31T17:55:38;99254.90;;;14.41;100.00
25664;BME280;13522;50.018;20.014;2022-10-31T17:58:51;99253.98;;;14.33;100.00
25664;BME280;13522;50.018;20.014;2022-10-31T18:02:03;99253.00;;;14.16;100.00
25664;BME280;13522;50.018;20.014;2022-10-31T18:05:16;99249.64;;;14.14;100.00
25664;BME280;13522;50.018;20.014;2022-10-31T18:08:31;99256.90;;;14.04;100.00
25664;BME280;13522;50.018;20.014;2022-10-31T18:11:44;99261.75;;;13.73;100.00
25664;BME280;13522;50.018;20.014;2022-10-31T18:14:57;99258.22;;;13.55;100.00
25664;BME280;13522;50.018;20.014;2022-10-31T18:18:10;99261.64;;;13.48;100.00
25664;BME280;13522;50.018;20.014;2022-10-31T18:21:22;99260.03;;;13.55;100.00
25664;BME280;13522;50.018;20.014;2022-10-31T18:24:35;99257.37;;;13.55;100.00
25664;BME280;13522;50.018;20.014;2022-10-31T18:27:47;99260.57;;;13.41;100.00
25664;BME280;13522;50.018;20.014;2022-10-31T18:31:00;99261.88;;;13.27;100.00
25664;BME280;13522;50.018;20.014;2022-10-31T18:34:13;99259.09;;;13.29;100.00
25664;BME280;13522;50.018;20.014;2022-10-31T18:37:26;99256.64;;;13.35;100.00
25664;BME280;13522;50.018;20.014;2022-10-31T18:40:38;99248.80;;;13.34;100.00
25664;BME280;13522;50.018;20.014;2022-10-31T18:43:50;99248.80;;;13.34;100.00
25664;BME280;13522;50.018;20.014;2022-10-31T18:47:05;99246.88;;;13.26;100.00
25664;BME280;13522;50.018;20.014;2022-10-31T18:50:18;99255.31;;;13.22;100.00
25664;BME280;13522;50.018;20.014;2022-10-31T18:53:31;99252.86;;;13.11;100.00
25664;BME280;13522;50.018;20.014;2022-10-31T18:56:43;99243.02;;;13.01;100.00
25664;BME280;13522;50.018;20.014;2022-10-31T18:59:55;99250.63;;;12.96;100.00
25664;BME280;13522;50.018;20.014;2022-10-31T19:03:07;99246.73;;;12.91;100.00
25664;BME280;13522;50.018;20.014;2022-10-31T19:06:20;99250.83;;;12.85;100.00
25664;BME280;13522;50.018;20.014;2022-10-31T19:09:33;99246.47;;;12.84;100.00
25664;BME280;13522;50.018;20.014;2022-10-31T19:12:46;99248.74;;;12.79;100.00
25664;BME280;13522;50.018;20.014;2022-10-31T19:16:04;99253.50;;;12.76;100.00
25664;BME280;13522;50.018;20.014;2022-10-31T19:19:18;99240.05;;;12.77;100.00
25664;BME280;13522;50.018;20.014;2022-10-31T19:22:32;99247.93;;;12.69;100.00
25664;BME280;13522;50.018;20.014;2022-10-31T19:25:44;99223.01;;;12.51;100.00
25664;BME280;13522;50.018;20.014;2022-10-31T19:28:58;99242.91;;;12.57;100.00
25664;BME280;13522;50.018;20.014;2022-10-31T19:32:10;99237.72;;;12.55;100.00
25664;BME280;13522;50.018;20.014;2022-10-31T19:35:23;99233.67;;;12.51;100.00
25664;BME280;13522;50.018;20.014;2022-10-31T19:38:36;99235.48;;;12.51;100.00
25664;BME280;13522;50.018;20.014;2022-10-31T19:41:52;99238.72;;;12.45;100.00
25664;BME280;13522;50.018;20.014;2022-10-31T19:45:05;99245.32;;;12.41;100.00
25664;BME280;13522;50.018;20.014;2022-10-31T19:48:19;99242.11;;;12.37;100.00
25664;BME280;13522;50.018;20.014;2022-10-31T19:51:36;99246.19;;;12.32;100.00
25664;BME280;13522;50.018;20.014;2022-10-31T19:54:58;99242.67;;;12.31;100.00
25664;BME280;13522;50.018;20.014;2022-10-31T19:58:10;99246.30;;;12.30;100.00
25664;BME280;13522;50.018;20.014;2022-10-31T20:01:24;99236.93;;;12.36;100.00
25664;BME280;13522;50.018;20.014;2022-10-31T20:04:37;99224.30;;;12.28;100.00
25664;BME280;13522;50.018;20.014;2022-10-31T20:07:49;99243.08;;;12.36;100.00
25664;BME280;13522;50.018;20.014;2022-10-31T20:11:02;99242.11;;;12.37;100.00
25664;BME280;13522;50.018;20.014;2022-10-31T20:14:17;99239.58;;;12.26;100.00
25664;BME280;13522;50.018;20.014;2022-10-31T20:17:30;99238.34;;;12.11;100.00
25664;BME280;13522;50.018;20.014;2022-10-31T20:20:43;99237.66;;;11.99;100.00
25664;BME280;13522;50.018;20.014;2022-10-31T20:23:57;99230.38;;;11.92;100.00